createdAt,value
2022-11-16T00:00:05.596Z,15.10
2022-11-16T00:01:02.305Z,15.09
2022-11-16T00:02:02.999Z,15.09
2022-11-16T00:03:03.595Z,15.10
2022-11-16T00:04:04.151Z,15.10
2022-11-16T00:05:04.697Z,15.10
2022-11-16T00:06:05.552Z,15.13
2022-11-16T00:07:06.196Z,15.11
2022-11-16T00:08:06.781Z,15.16
2022-11-16T00:09:07.343Z,15.16
2022-11-16T00:10:07.924Z,15.16
2022-11-16T00:11:08.592Z,15.11
2022-11-16T00:12:09.154Z,15.10
2022-11-16T00:13:09.701Z,15.07
2022-11-16T00:14:10.258Z,15.06
2022-11-16T00:15:10.815Z,15.06
2022-11-16T00:16:11.397Z,15.06
2022-11-16T00:17:11.968Z,15.03
2022-11-16T00:18:12.525Z,15.07
2022-11-16T00:19:13.096Z,15.07
2022-11-16T00:20:13.651Z,15.11
2022-11-16T00:21:14.251Z,15.14
2022-11-16T00:22:14.805Z,15.17
2022-11-16T00:23:15.353Z,15.16
2022-11-16T00:24:15.929Z,15.16
2022-11-16T00:25:16.485Z,15.14
2022-11-16T00:26:17.072Z,15.11
2022-11-16T00:27:17.617Z,15.09
2022-11-16T00:28:18.175Z,15.09
2022-11-16T00:29:18.728Z,15.03
2022-11-16T00:30:19.292Z,14.98
2022-11-16T00:31:19.921Z,14.91
2022-11-16T00:32:20.473Z,14.89
2022-11-16T00:33:21.037Z,14.78
2022-11-16T00:34:21.580Z,14.78
2022-11-16T00:35:22.125Z,14.70
2022-11-16T00:36:22.762Z,14.69
2022-11-16T00:37:23.308Z,14.68
2022-11-16T00:38:23.855Z,14.68
2022-11-16T00:39:24.420Z,14.65
2022-11-16T00:40:24.974Z,14.64
2022-11-16T00:41:25.623Z,14.64
2022-11-16T00:42:26.177Z,14.68
2022-11-16T00:43:26.741Z,14.68
2022-11-16T00:44:27.293Z,14.69
2022-11-16T00:45:27.849Z,14.70
2022-11-16T00:46:28.442Z,14.70
2022-11-16T00:47:28.994Z,14.69
2022-11-16T00:48:29.554Z,14.68
2022-11-16T00:49:30.112Z,14.65
2022-11-16T00:50:30.657Z,14.64
2022-11-16T00:51:31.344Z,14.61
2022-11-16T00:52:31.897Z,14.58
2022-11-16T00:53:32.449Z,14.58
2022-11-16T00:54:33.012Z,14.55
2022-11-16T00:55:33.561Z,14.52
2022-11-16T00:56:34.188Z,14.50
2022-11-16T00:57:34.742Z,14.50
2022-11-16T00:58:35.764Z,14.47
2022-11-16T00:59:36.104Z,14.45
2022-11-16T01:00:36.649Z,14.43
2022-11-16T01:01:37.333Z,14.42
2022-11-16T01:02:37.961Z,14.40
2022-11-16T01:03:38.537Z,14.39
2022-11-16T01:04:39.095Z,14.37
2022-11-16T01:05:39.648Z,14.35
2022-11-16T01:06:40.430Z,14.36
2022-11-16T01:07:40.990Z,14.37
2022-11-16T01:08:41.541Z,14.37
2022-11-16T01:09:42.096Z,14.37
2022-11-16T01:10:42.899Z,14.40
2022-11-16T01:11:43.560Z,14.40
2022-11-16T01:12:44.117Z,14.40
2022-11-16T01:13:44.689Z,14.42
2022-11-16T01:14:45.254Z,14.43
2022-11-16T01:15:45.835Z,14.45
2022-11-16T01:16:46.499Z,14.47
2022-11-16T01:17:47.096Z,14.50
2022-11-16T01:18:47.644Z,14.51
2022-11-16T01:19:48.206Z,14.51
2022-11-16T01:20:48.762Z,14.47
2022-11-16T01:21:49.361Z,14.51
2022-11-16T01:22:49.912Z,14.51
2022-11-16T01:23:50.467Z,14.47
2022-11-16T01:24:51.027Z,14.47
2022-11-16T01:25:51.586Z,14.46
2022-11-16T01:26:52.164Z,14.45
2022-11-16T01:27:52.712Z,14.40
2022-11-16T01:28:53.272Z,14.40
2022-11-16T01:29:53.833Z,14.42
2022-11-16T01:30:54.389Z,14.42
2022-11-16T01:31:55.307Z,14.42
2022-11-16T01:32:55.863Z,14.40
2022-11-16T01:33:56.428Z,14.40
2022-11-16T01:34:56.990Z,14.43
2022-11-16T01:35:57.536Z,14.43
2022-11-16T01:36:58.156Z,14.43
2022-11-16T01:37:58.712Z,14.42
2022-11-16T01:38:59.260Z,14.40
2022-11-16T01:39:59.813Z,14.40
2022-11-16T01:41:00.366Z,14.39
2022-11-16T01:42:01.012Z,14.37
2022-11-16T01:43:01.569Z,14.37
2022-11-16T01:44:02.117Z,14.35
2022-11-16T01:45:02.669Z,14.32
2022-11-16T01:46:03.223Z,14.29
2022-11-16T01:47:03.830Z,14.29
2022-11-16T01:48:04.560Z,14.28
2022-11-16T01:49:05.171Z,14.32
2022-11-16T01:50:05.737Z,14.32
2022-11-16T01:51:06.294Z,14.33
2022-11-16T01:52:06.907Z,14.36
2022-11-16T01:53:07.473Z,14.37
2022-11-16T01:54:08.025Z,14.37
2022-11-16T01:55:08.612Z,14.39
2022-11-16T01:56:08.499Z,14.40
2022-11-16T01:57:10.219Z,14.40
2022-11-16T01:58:10.775Z,14.43
2022-11-16T01:59:11.325Z,14.47
2022-11-16T02:00:11.877Z,14.52
2022-11-16T02:01:12.472Z,14.52
2022-11-16T02:02:13.056Z,14.57
2022-11-16T02:03:13.622Z,14.57
2022-11-16T02:04:14.172Z,14.55
2022-11-16T02:05:14.722Z,14.57
2022-11-16T02:06:15.289Z,14.57
2022-11-16T02:07:15.975Z,14.54
2022-11-16T02:08:16.599Z,14.51
2022-11-16T02:09:17.150Z,14.52
2022-11-16T02:10:17.702Z,14.52
2022-11-16T02:11:18.253Z,14.54
2022-11-16T02:12:18.910Z,14.55
2022-11-16T02:13:19.475Z,14.57
2022-11-16T02:14:20.031Z,14.58
2022-11-16T02:15:20.593Z,14.55
2022-11-16T02:16:21.153Z,14.51
2022-11-16T02:17:21.944Z,14.51
2022-11-16T02:18:22.490Z,14.47
2022-11-16T02:19:23.043Z,14.47
2022-11-16T02:20:23.614Z,14.47
2022-11-16T02:21:24.156Z,14.50
2022-11-16T02:22:24.781Z,14.47
2022-11-16T02:23:25.326Z,14.50
2022-11-16T02:24:25.882Z,14.52
2022-11-16T02:25:26.440Z,14.52
2022-11-16T02:26:26.998Z,14.52
2022-11-16T02:27:27.580Z,14.54
2022-11-16T02:28:28.135Z,14.55
2022-11-16T02:29:28.692Z,14.58
2022-11-16T02:30:29.255Z,14.58
2022-11-16T02:31:29.802Z,14.58
2022-11-16T02:32:30.444Z,14.60
2022-11-16T02:33:30.995Z,14.64
2022-11-16T02:34:31.560Z,14.61
2022-11-16T02:35:32.124Z,14.62
2022-11-16T02:36:32.689Z,14.61
2022-11-16T02:37:33.355Z,14.60
2022-11-16T02:38:34.241Z,14.61
2022-11-16T02:39:34.583Z,14.61
2022-11-16T02:40:35.138Z,14.60
2022-11-16T02:41:35.691Z,14.61
2022-11-16T02:42:36.343Z,14.61
2022-11-16T02:43:36.910Z,14.64
2022-11-16T02:44:37.467Z,14.64
2022-11-16T02:45:38.032Z,14.65
2022-11-16T02:46:38.584Z,14.69
2022-11-16T02:47:39.198Z,14.70
2022-11-16T02:48:39.752Z,14.75
2022-11-16T02:49:40.311Z,14.77
2022-11-16T02:50:40.871Z,14.78
2022-11-16T02:51:41.434Z,14.80
2022-11-16T02:52:42.045Z,14.80
2022-11-16T02:53:42.598Z,14.80
2022-11-16T02:54:43.163Z,14.80
2022-11-16T02:55:43.705Z,14.83
2022-11-16T02:56:44.263Z,14.86
2022-11-16T02:57:44.909Z,14.88
2022-11-16T02:58:45.468Z,14.94
2022-11-16T02:59:46.021Z,14.95
2022-11-16T03:00:46.603Z,14.96
2022-11-16T03:01:47.311Z,14.99
2022-11-16T03:02:47.899Z,14.99
2022-11-16T03:03:48.457Z,14.99
2022-11-16T03:04:49.020Z,15.02
2022-11-16T03:05:49.574Z,15.06
2022-11-16T03:06:50.186Z,15.03
2022-11-16T03:07:50.822Z,15.03
2022-11-16T03:08:51.378Z,15.06
2022-11-16T03:09:51.935Z,15.06
2022-11-16T03:10:52.501Z,15.07
2022-11-16T03:11:53.044Z,15.09
2022-11-16T03:12:53.744Z,15.07
2022-11-16T03:13:54.313Z,15.07
2022-11-16T03:14:54.874Z,15.07
2022-11-16T03:15:55.427Z,15.09
2022-11-16T03:16:56.008Z,15.07
2022-11-16T03:17:56.691Z,15.06
2022-11-16T03:18:57.242Z,15.06
2022-11-16T03:19:57.794Z,15.02
2022-11-16T03:20:58.356Z,15.01
2022-11-16T03:21:58.908Z,14.96
2022-11-16T03:22:59.523Z,14.95
2022-11-16T03:24:00.083Z,14.94
2022-11-16T03:25:00.655Z,14.92
2022-11-16T03:26:01.207Z,14.91
2022-11-16T03:27:01.773Z,14.91
2022-11-16T03:28:02.464Z,14.94
2022-11-16T03:29:03.027Z,14.95
2022-11-16T03:30:03.583Z,14.96
2022-11-16T03:31:04.172Z,14.98
2022-11-16T03:32:04.734Z,14.95
2022-11-16T03:33:05.367Z,14.98
2022-11-16T03:34:05.916Z,14.98
2022-11-16T03:35:06.479Z,14.98
2022-11-16T03:36:07.037Z,15.01
2022-11-16T03:37:07.644Z,15.01
2022-11-16T03:38:08.414Z,15.03
2022-11-16T03:39:08.961Z,15.09
2022-11-16T03:40:09.518Z,15.13
2022-11-16T03:41:10.070Z,15.20
2022-11-16T03:42:10.629Z,15.20
2022-11-16T03:43:11.298Z,15.21
2022-11-16T03:44:11.867Z,15.20
2022-11-16T03:45:12.420Z,15.20
2022-11-16T03:46:12.977Z,15.17
2022-11-16T03:47:13.538Z,15.17
2022-11-16T03:48:14.207Z,15.17
2022-11-16T03:49:14.774Z,15.13
2022-11-16T03:50:15.324Z,15.11
2022-11-16T03:51:15.880Z,15.11
2022-11-16T03:52:16.431Z,15.11
2022-11-16T03:53:17.032Z,15.11
2022-11-16T03:54:17.603Z,15.16
2022-11-16T03:55:18.158Z,15.17
2022-11-16T03:56:18.713Z,15.17
2022-11-16T03:57:19.268Z,15.16
2022-11-16T03:58:19.902Z,15.13
2022-11-16T03:59:20.465Z,15.11
2022-11-16T04:00:21.019Z,15.13
2022-11-16T04:01:21.669Z,15.14
2022-11-16T04:02:22.280Z,15.13
2022-11-16T04:03:22.880Z,15.16
2022-11-16T04:04:23.556Z,15.16
2022-11-16T04:05:24.110Z,15.14
2022-11-16T04:06:24.663Z,15.16
2022-11-16T04:07:25.294Z,15.17
2022-11-16T04:08:25.952Z,15.17
2022-11-16T04:09:26.500Z,15.19
2022-11-16T04:10:27.075Z,15.19
2022-11-16T04:11:27.636Z,15.23
2022-11-16T04:12:28.190Z,15.28
2022-11-16T04:13:28.841Z,15.29
2022-11-16T04:14:29.393Z,15.32
2022-11-16T04:15:29.951Z,15.32
2022-11-16T04:16:30.509Z,15.31
2022-11-16T04:17:31.063Z,15.34
2022-11-16T04:18:32.098Z,15.39
2022-11-16T04:19:32.500Z,15.39
2022-11-16T04:20:33.059Z,15.43
2022-11-16T04:21:33.610Z,15.39
2022-11-16T04:22:34.159Z,15.39
2022-11-16T04:23:34.850Z,15.35
2022-11-16T04:24:35.401Z,15.34
2022-11-16T04:25:35.951Z,15.32
2022-11-16T04:26:36.514Z,15.31
2022-11-16T04:27:37.075Z,15.31
2022-11-16T04:28:38.152Z,15.35
2022-11-16T04:29:38.367Z,15.41
2022-11-16T04:30:38.922Z,15.43
2022-11-16T04:31:39.485Z,15.49
2022-11-16T04:32:40.039Z,15.53
2022-11-16T04:33:40.656Z,15.51
2022-11-16T04:34:41.210Z,15.51
2022-11-16T04:35:41.769Z,15.49
2022-11-16T04:36:42.347Z,15.49
2022-11-16T04:37:42.928Z,15.47
2022-11-16T04:38:43.624Z,15.43
2022-11-16T04:39:44.186Z,15.43
2022-11-16T04:40:44.741Z,15.39
2022-11-16T04:41:45.247Z,15.38
2022-11-16T04:42:45.752Z,15.38
2022-11-16T04:43:46.360Z,15.36
2022-11-16T04:44:46.873Z,15.34
2022-11-16T04:45:47.406Z,15.31
2022-11-16T04:46:47.905Z,15.31
2022-11-16T04:47:48.414Z,15.29
2022-11-16T04:48:48.956Z,15.28
2022-11-16T04:49:49.502Z,15.29
2022-11-16T04:50:50.011Z,15.28
2022-11-16T04:51:50.516Z,15.31
2022-11-16T04:52:51.020Z,15.29
2022-11-16T04:53:51.579Z,15.28
2022-11-16T04:54:52.070Z,15.27
2022-11-16T04:55:57.966Z,15.23
2022-11-16T04:56:53.915Z,15.20
2022-11-16T04:57:54.417Z,15.17
2022-11-16T04:58:55.004Z,15.14
2022-11-16T04:59:55.507Z,15.13
2022-11-16T05:00:56.101Z,15.13
2022-11-16T05:01:56.663Z,15.13
2022-11-16T05:03:01.316Z,15.11
2022-11-16T05:03:57.949Z,15.11
2022-11-16T05:04:58.459Z,15.13
2022-11-16T05:05:58.965Z,15.13
2022-11-16T05:06:59.490Z,15.11
2022-11-16T05:08:00.039Z,15.14
2022-11-16T05:09:00.613Z,15.17
2022-11-16T05:10:01.109Z,15.17
2022-11-16T05:11:01.612Z,15.17
2022-11-16T05:12:02.117Z,15.17
2022-11-16T05:13:02.624Z,15.16
2022-11-16T05:14:03.170Z,15.16
2022-11-16T05:15:03.677Z,15.13
2022-11-16T05:16:04.189Z,15.13
2022-11-16T05:17:04.706Z,15.16
2022-11-16T05:18:05.210Z,15.20
2022-11-16T05:19:05.746Z,15.21
2022-11-16T05:20:06.252Z,15.21
2022-11-16T05:21:06.763Z,15.25
2022-11-16T05:22:07.288Z,15.27
2022-11-16T05:23:07.796Z,15.31
2022-11-16T05:24:08.357Z,15.38
2022-11-16T05:25:08.872Z,15.46
2022-11-16T05:26:09.391Z,15.53
2022-11-16T05:27:09.361Z,15.60
2022-11-16T05:28:10.860Z,15.65
2022-11-16T05:29:11.392Z,15.65
2022-11-16T05:30:11.893Z,15.68
2022-11-16T05:31:12.407Z,15.71
2022-11-16T05:32:12.964Z,15.75
2022-11-16T05:33:13.470Z,15.80
2022-11-16T05:34:14.049Z,15.84
2022-11-16T05:35:14.545Z,15.89
2022-11-16T05:36:15.039Z,15.94
2022-11-16T05:37:15.543Z,16.00
2022-11-16T05:38:18.970Z,16.07
2022-11-16T05:39:19.698Z,16.11
2022-11-16T05:41:18.391Z,16.21
2022-11-16T05:42:19.814Z,16.21
2022-11-16T05:43:20.991Z,16.25
2022-11-16T05:44:20.692Z,16.30
2022-11-16T05:45:21.281Z,16.34
2022-11-16T05:46:21.410Z,16.35
2022-11-16T05:47:21.911Z,16.39
2022-11-16T05:48:22.452Z,16.42
2022-11-16T05:49:23.006Z,16.46
2022-11-16T05:50:42.540Z,16.46
2022-11-16T05:51:25.773Z,16.50
2022-11-16T05:52:30.630Z,16.56
2022-11-16T05:53:28.864Z,16.58
2022-11-16T05:54:26.953Z,16.64
2022-11-16T05:55:36.146Z,16.71
2022-11-16T05:56:28.570Z,16.73
2022-11-16T05:57:37.545Z,16.76
2022-11-16T05:58:33.545Z,16.78
2022-11-16T06:03:08.035Z,16.88
2022-11-16T06:04:10.888Z,16.93
2022-11-16T06:05:11.676Z,16.94
2022-11-16T06:06:29.084Z,16.96
2022-11-16T06:07:13.109Z,16.96
2022-11-16T06:08:16.170Z,16.96
2022-11-16T06:09:19.699Z,16.96
2022-11-16T06:10:14.700Z,16.97
2022-11-16T06:11:15.204Z,16.98
2022-11-16T06:12:16.343Z,17.01
2022-11-16T06:13:18.617Z,17.04
2022-11-16T06:14:32.343Z,17.14
2022-11-16T06:15:18.187Z,17.19
2022-11-16T06:16:20.365Z,17.25
2022-11-16T06:17:21.298Z,17.31
2022-11-16T06:18:20.205Z,17.40
2022-11-16T06:19:26.962Z,17.54
2022-11-16T06:21:15.845Z,17.64
2022-11-16T06:21:22.147Z,17.84
2022-11-16T06:22:22.835Z,17.92
2022-11-16T06:23:23.389Z,17.87
2022-11-16T06:24:24.057Z,17.84
2022-11-16T06:25:24.795Z,17.84
2022-11-16T06:26:25.698Z,17.81
2022-11-16T06:27:26.346Z,17.79
2022-11-16T06:28:26.906Z,17.81
2022-11-16T06:29:27.521Z,17.82
2022-11-16T06:31:03.114Z,17.84
2022-11-16T06:31:34.685Z,17.82
2022-11-16T06:32:29.746Z,17.82
2022-11-16T06:33:33.560Z,17.86
2022-11-16T06:34:31.066Z,17.89
2022-11-16T06:35:31.797Z,17.93
2022-11-16T06:36:32.356Z,17.97
2022-11-16T06:37:32.883Z,18.03
2022-11-16T06:38:33.834Z,18.18
2022-11-16T06:39:34.125Z,18.35
2022-11-16T06:40:34.769Z,18.48
2022-11-16T06:41:42.593Z,18.54
2022-11-16T06:42:45.239Z,18.54
2022-11-16T06:43:42.081Z,18.54
2022-11-16T06:44:42.067Z,18.55
2022-11-16T06:45:38.467Z,18.51
2022-11-16T06:46:39.507Z,18.51
2022-11-16T06:47:39.586Z,18.51
2022-11-16T06:48:40.140Z,18.55
2022-11-16T06:49:40.874Z,18.60
2022-11-16T06:50:43.381Z,18.62
2022-11-16T06:51:43.615Z,18.67
2022-11-16T06:52:42.904Z,18.78
2022-11-16T06:53:43.519Z,18.81
2022-11-16T06:54:44.065Z,18.91
2022-11-16T06:55:46.083Z,19.00
2022-11-16T06:56:45.938Z,19.21
2022-11-16T06:57:54.620Z,19.50
2022-11-16T06:58:47.373Z,19.78
2022-11-16T06:59:54.108Z,20.16
2022-11-16T07:00:48.702Z,20.69
2022-11-16T07:01:49.661Z,21.13
2022-11-16T07:03:00.364Z,21.43
2022-11-16T07:04:03.517Z,21.54
2022-11-16T07:05:07.024Z,21.71
2022-11-16T07:05:54.556Z,22.03
2022-11-16T07:06:52.862Z,22.39
2022-11-16T07:07:54.462Z,22.57
2022-11-16T07:08:55.889Z,22.61
2022-11-16T07:09:56.004Z,22.43
2022-11-16T07:11:01.504Z,22.33
2022-11-16T07:12:00.395Z,22.07
2022-11-16T07:12:58.448Z,21.75
2022-11-16T07:13:59.032Z,21.58
2022-11-16T07:15:01.250Z,21.49
2022-11-16T07:16:00.373Z,21.43
2022-11-16T07:17:09.148Z,21.44
2022-11-16T07:19:51.729Z,21.44
2022-11-16T07:21:08.244Z,21.56
2022-11-16T07:21:53.635Z,21.68
2022-11-16T07:22:54.367Z,21.79
2022-11-16T07:23:54.861Z,22.17
2022-11-16T07:24:55.563Z,22.51
2022-11-16T07:26:03.186Z,22.82
2022-11-16T07:27:25.977Z,23.22
2022-11-16T07:27:58.303Z,23.63
2022-11-16T07:29:03.271Z,23.97
2022-11-16T07:35:56.635Z,25.95
2022-11-16T07:38:48.738Z,26.77
2022-11-16T07:39:47.923Z,26.89
2022-11-16T07:44:16.749Z,26.33
2022-11-16T07:45:39.939Z,26.06
2022-11-16T07:48:28.153Z,26.13
2022-11-16T07:50:43.787Z,25.72
2022-11-16T07:53:30.953Z,25.46
2022-11-16T07:54:32.239Z,25.36
2022-11-16T07:55:37.737Z,25.45
2022-11-16T08:00:12.386Z,24.61
2022-11-16T08:01:16.339Z,24.57
2022-11-16T08:02:47.846Z,24.64
2022-11-16T08:03:14.739Z,24.62
2022-11-16T08:04:15.503Z,24.73
2022-11-16T08:05:16.408Z,24.77
2022-11-16T08:06:18.380Z,24.68
2022-11-16T08:07:17.764Z,24.67
2022-11-16T08:08:18.633Z,24.64
2022-11-16T08:09:19.649Z,24.52
2022-11-16T08:10:20.229Z,24.40
2022-11-16T08:11:20.818Z,24.31
2022-11-16T08:12:21.748Z,24.20
2022-11-16T08:13:22.245Z,24.21
2022-11-16T08:14:23.258Z,24.21
2022-11-16T08:15:23.579Z,24.24
2022-11-16T08:16:27.306Z,24.32
2022-11-16T08:17:25.020Z,24.40
2022-11-16T08:18:25.682Z,24.37
2022-11-16T08:19:26.225Z,24.35
2022-11-16T08:20:26.811Z,24.42
2022-11-16T08:21:27.484Z,24.53
2022-11-16T08:22:28.206Z,24.71
2022-11-16T08:23:28.915Z,24.88
2022-11-16T08:24:30.653Z,25.03
2022-11-16T08:25:30.551Z,25.13
2022-11-16T08:26:31.047Z,25.20
2022-11-16T08:27:31.552Z,25.15
2022-11-16T08:28:32.499Z,24.84
2022-11-16T08:29:32.676Z,24.62
2022-11-16T08:30:33.301Z,24.77
2022-11-16T08:31:33.820Z,24.57
2022-11-16T08:32:38.389Z,24.58
2022-11-16T08:33:36.331Z,24.83
2022-11-16T08:36:44.856Z,24.08
2022-11-16T08:38:03.352Z,23.93
2022-11-16T08:38:42.126Z,23.68
2022-11-16T08:39:35.233Z,23.51
2022-11-16T08:40:28.907Z,23.42
2022-11-16T08:41:31.241Z,23.27
2022-11-16T08:42:30.030Z,23.09
2022-11-16T08:43:30.531Z,24.27
2022-11-16T08:44:31.030Z,25.32
2022-11-16T08:45:31.658Z,26.29
2022-11-16T08:46:35.222Z,26.70
2022-11-16T08:47:33.053Z,26.92
2022-11-16T08:48:41.634Z,27.21
2022-11-16T08:49:46.576Z,27.32
2022-11-16T08:50:55.482Z,27.87
2022-11-16T08:51:35.992Z,28.59
2022-11-16T08:52:36.529Z,29.11
2022-11-16T08:53:47.814Z,29.39
2022-11-16T08:54:40.468Z,29.36
2022-11-16T08:57:27.446Z,29.09
2022-11-16T08:58:29.126Z,29.85
2022-11-16T08:59:29.784Z,30.29
2022-11-16T09:00:30.285Z,30.58
2022-11-16T09:01:30.867Z,31.06
2022-11-16T09:02:31.765Z,31.50
2022-11-16T09:03:34.845Z,31.88
2022-11-16T09:05:11.259Z,32.22
2022-11-16T09:05:37.901Z,32.51
2022-11-16T09:06:58.682Z,32.87
2022-11-16T09:07:41.527Z,33.06
2022-11-16T09:08:40.758Z,33.11
2022-11-16T09:09:38.618Z,32.28
2022-11-16T09:10:38.484Z,32.57
2022-11-16T09:15:05.780Z,33.04
2022-11-16T09:16:20.062Z,33.15
2022-11-16T09:17:07.621Z,33.01
2022-11-16T09:21:59.051Z,26.35
2022-11-16T09:23:10.695Z,25.17
2022-11-16T09:25:41.036Z,23.22
2022-11-16T09:26:48.113Z,22.65
2022-11-16T09:29:52.656Z,21.27
2022-11-16T09:34:10.038Z,20.51
2022-11-16T09:35:11.858Z,20.39
2022-11-16T09:36:10.982Z,20.38
2022-11-16T09:37:33.728Z,20.33
2022-11-16T09:38:16.169Z,20.36
2022-11-16T09:39:30.007Z,20.59
2022-11-16T09:40:14.218Z,21.16
2022-11-16T09:45:25.354Z,22.47
2022-11-16T09:46:36.607Z,22.39
2022-11-16T09:47:32.688Z,22.18
2022-11-16T09:48:07.843Z,21.86
2022-11-16T09:49:24.222Z,21.68
2022-11-16T09:52:02.411Z,21.79
2022-11-16T09:52:50.426Z,22.03
2022-11-16T09:53:48.498Z,22.39
2022-11-16T09:55:27.433Z,22.70
2022-11-16T09:55:56.217Z,23.25
2022-11-16T09:56:50.515Z,23.39
2022-11-16T09:57:52.775Z,23.73
2022-11-16T09:58:52.224Z,24.39
2022-11-16T09:59:53.243Z,25.14
2022-11-16T10:00:53.432Z,26.05
2022-11-16T10:01:54.146Z,26.72
2022-11-16T10:02:54.655Z,27.39
2022-11-16T10:04:02.366Z,27.88
2022-11-16T10:05:06.594Z,28.37
2022-11-16T10:05:57.034Z,29.00
2022-11-16T10:07:04.691Z,29.68
2022-11-16T10:08:01.966Z,30.31
2022-11-16T10:08:58.967Z,30.64
2022-11-16T10:09:59.550Z,30.69
2022-11-16T10:11:00.529Z,30.80
2022-11-16T10:12:01.615Z,31.06
2022-11-16T10:13:02.392Z,31.50
2022-11-16T10:14:04.725Z,31.88
2022-11-16T10:15:02.894Z,31.93
2022-11-16T10:16:03.526Z,31.78
2022-11-16T10:17:04.066Z,31.19
2022-11-16T10:18:04.785Z,31.14
2022-11-16T10:19:05.904Z,31.56
2022-11-16T10:20:05.978Z,30.67
2022-11-16T10:21:06.493Z,31.20
2022-11-16T10:22:07.100Z,31.54
2022-11-16T10:23:07.749Z,31.66
2022-11-16T10:24:08.254Z,31.50
2022-11-16T10:25:08.764Z,32.01
2022-11-16T10:26:09.281Z,30.84
2022-11-16T10:27:12.224Z,29.02
2022-11-16T10:28:10.780Z,27.85
2022-11-16T10:29:11.313Z,29.21
2022-11-16T10:30:13.201Z,29.02
2022-11-16T10:31:12.824Z,27.65
2022-11-16T10:32:14.558Z,29.00
2022-11-16T10:33:14.084Z,28.27
2022-11-16T10:34:14.594Z,27.24
2022-11-16T10:35:15.126Z,26.48
2022-11-16T10:36:15.669Z,25.91
2022-11-16T10:37:20.134Z,25.55
2022-11-16T10:38:16.814Z,25.97
2022-11-16T10:39:17.383Z,26.45
2022-11-16T10:40:17.903Z,25.97
2022-11-16T10:43:08.148Z,27.25
2022-11-16T10:44:10.310Z,28.81
2022-11-16T10:45:27.024Z,29.58
2022-11-16T10:48:06.535Z,30.94
2022-11-16T10:53:05.462Z,31.57
2022-11-16T10:53:45.623Z,31.69
2022-11-16T10:54:44.482Z,31.99
2022-11-16T10:55:41.890Z,31.78
2022-11-16T10:56:42.836Z,32.06
2022-11-16T10:57:43.562Z,30.70
2022-11-16T10:58:46.160Z,29.46
2022-11-16T10:59:47.484Z,30.31
2022-11-16T11:00:46.241Z,28.98
2022-11-16T11:01:46.677Z,29.48
2022-11-16T11:02:47.937Z,29.04
2022-11-16T11:03:48.007Z,27.81
2022-11-16T11:04:48.549Z,26.65
2022-11-16T11:05:49.518Z,25.79
2022-11-16T11:06:50.620Z,26.89
2022-11-16T11:07:59.945Z,26.40
2022-11-16T11:08:52.134Z,27.93
2022-11-16T11:10:00.498Z,27.55
2022-11-16T11:10:54.180Z,26.97
2022-11-16T11:12:16.953Z,27.77
2022-11-16T11:13:13.711Z,26.92
2022-11-16T11:13:56.265Z,27.14
2022-11-16T11:15:11.332Z,27.32
2022-11-16T11:15:57.606Z,28.55
2022-11-16T11:16:58.125Z,29.23
2022-11-16T11:17:58.643Z,29.98
2022-11-16T11:19:09.929Z,30.42
2022-11-16T11:19:59.970Z,29.65
2022-11-16T11:21:00.473Z,28.09
2022-11-16T11:22:02.355Z,27.22
2022-11-16T11:23:06.513Z,26.45
2022-11-16T11:24:37.327Z,25.79
2022-11-16T11:25:05.235Z,25.39
2022-11-16T11:26:04.878Z,26.36
2022-11-16T11:27:05.159Z,26.92
2022-11-16T11:28:12.204Z,28.29
2022-11-16T11:29:06.278Z,29.43
2022-11-16T11:30:07.731Z,29.90
2022-11-16T11:31:07.588Z,30.32
2022-11-16T11:32:08.151Z,30.99
2022-11-16T11:33:13.830Z,31.46
2022-11-16T11:34:09.654Z,31.76
2022-11-16T11:35:10.362Z,31.84
2022-11-16T11:36:10.923Z,32.07
2022-11-16T11:37:11.501Z,32.44
2022-11-16T11:38:12.064Z,32.74
2022-11-16T11:39:12.718Z,33.00
2022-11-16T11:40:13.364Z,32.85
2022-11-16T11:41:26.188Z,31.06
2022-11-16T11:42:21.029Z,31.50
2022-11-16T11:43:18.829Z,31.63
2022-11-16T11:44:16.201Z,32.07
2022-11-16T11:45:20.630Z,32.04
2022-11-16T11:46:17.414Z,31.63
2022-11-16T11:47:55.764Z,31.09
2022-11-16T11:48:19.485Z,31.54
2022-11-16T11:49:19.586Z,31.65
2022-11-16T11:50:20.592Z,32.28
2022-11-16T11:51:21.391Z,30.94
2022-11-16T11:52:28.516Z,30.98
2022-11-16T11:53:27.891Z,31.38
2022-11-16T11:54:23.102Z,30.65
2022-11-16T11:55:23.640Z,29.16
2022-11-16T11:56:24.138Z,28.89
2022-11-16T11:57:24.704Z,28.48
2022-11-16T11:58:25.342Z,28.85
2022-11-16T11:59:25.855Z,28.55
2022-11-16T12:00:26.441Z,28.41
2022-11-16T12:01:27.300Z,28.85
2022-11-16T12:02:44.950Z,29.43
2022-11-16T12:03:29.637Z,30.08
2022-11-16T12:04:29.159Z,30.97
2022-11-16T12:05:29.813Z,31.57
2022-11-16T12:06:30.356Z,31.12
2022-11-16T12:07:30.940Z,31.47
2022-11-16T12:08:31.473Z,31.76
2022-11-16T12:09:31.981Z,31.39
2022-11-16T12:10:32.516Z,31.95
2022-11-16T12:11:33.009Z,31.35
2022-11-16T12:12:33.538Z,31.54
2022-11-16T12:13:34.384Z,31.95
2022-11-16T12:14:34.531Z,32.18
2022-11-16T12:15:35.108Z,32.38
2022-11-16T12:16:35.615Z,32.48
2022-11-16T12:17:36.120Z,32.40
2022-11-16T12:18:36.625Z,32.43
2022-11-16T12:19:37.136Z,32.26
2022-11-16T12:20:37.800Z,31.28
2022-11-16T12:21:38.331Z,30.35
2022-11-16T12:22:38.856Z,29.27
2022-11-16T12:23:39.375Z,29.61
2022-11-16T12:24:39.876Z,30.46
2022-11-16T12:25:40.462Z,31.06
2022-11-16T12:26:40.964Z,31.66
2022-11-16T12:27:41.470Z,32.04
2022-11-16T12:28:42.171Z,32.30
2022-11-16T12:29:42.618Z,32.44
2022-11-16T12:30:43.268Z,32.77
2022-11-16T12:31:43.773Z,32.92
2022-11-16T12:32:44.279Z,32.50
2022-11-16T12:33:44.786Z,32.40
2022-11-16T12:34:45.294Z,32.37
2022-11-16T12:35:45.985Z,32.43
2022-11-16T12:36:46.483Z,32.59
2022-11-16T12:37:46.984Z,32.43
2022-11-16T12:38:47.496Z,32.51
2022-11-16T12:39:48.003Z,32.67
2022-11-16T12:40:48.555Z,32.52
2022-11-16T12:41:49.091Z,32.79
2022-11-16T12:42:49.608Z,33.22
2022-11-16T12:43:50.116Z,33.53
2022-11-16T12:44:51.116Z,33.59
2022-11-16T12:45:51.647Z,33.84
2022-11-16T12:46:52.214Z,33.86
2022-11-16T12:47:52.717Z,33.93
2022-11-16T12:48:53.228Z,33.59
2022-11-16T12:49:53.721Z,33.23
2022-11-16T12:50:54.402Z,32.69
2022-11-16T12:51:54.917Z,32.45
2022-11-16T12:52:55.417Z,32.69
2022-11-16T12:53:55.925Z,32.57
2022-11-16T12:55:24.360Z,32.32
2022-11-16T12:55:57.322Z,32.04
2022-11-16T12:56:57.823Z,32.00
2022-11-16T12:57:58.334Z,31.89
2022-11-16T12:58:58.834Z,31.76
2022-11-16T12:59:59.337Z,32.01
2022-11-16T13:00:59.933Z,31.99
2022-11-16T13:02:00.907Z,32.62
2022-11-16T13:03:01.473Z,32.84
2022-11-16T13:04:01.992Z,33.15
2022-11-16T13:05:02.498Z,33.37
2022-11-16T13:06:03.073Z,33.26
2022-11-16T13:07:09.320Z,33.16
2022-11-16T13:08:04.420Z,33.14
2022-11-16T13:09:04.925Z,32.74
2022-11-16T13:10:05.433Z,32.32
2022-11-16T13:11:05.974Z,32.04
2022-11-16T13:12:06.479Z,32.22
2022-11-16T13:13:34.771Z,32.43
2022-11-16T13:14:07.841Z,32.50
2022-11-16T13:15:08.345Z,32.45
2022-11-16T13:16:08.931Z,30.62
2022-11-16T13:17:09.450Z,30.69
2022-11-16T13:18:09.952Z,30.27
2022-11-16T13:19:10.469Z,30.26
2022-11-16T13:20:14.501Z,28.96
2022-11-16T13:21:11.870Z,28.85
2022-11-16T13:22:12.383Z,29.14
2022-11-16T13:23:12.887Z,29.41
2022-11-16T13:24:13.386Z,29.78
2022-11-16T13:25:13.895Z,30.26
2022-11-16T13:26:14.482Z,30.45
2022-11-16T13:27:14.993Z,29.39
2022-11-16T13:28:15.538Z,29.48
2022-11-16T13:29:16.151Z,28.48
2022-11-16T13:30:16.659Z,27.65
2022-11-16T13:31:17.266Z,27.12
2022-11-16T13:32:17.769Z,26.47
2022-11-16T13:33:18.266Z,25.83
2022-11-16T13:34:18.792Z,26.62
2022-11-16T13:35:19.315Z,26.44
2022-11-16T13:36:19.967Z,25.90
2022-11-16T13:37:20.472Z,25.46
2022-11-16T13:38:20.971Z,25.15
2022-11-16T13:39:22.843Z,25.58
2022-11-16T13:40:22.177Z,25.99
2022-11-16T13:41:22.722Z,26.33
2022-11-16T13:42:23.246Z,26.15
2022-11-16T13:43:23.773Z,26.02
2022-11-16T13:44:24.287Z,25.42
2022-11-16T13:45:24.802Z,25.14
2022-11-16T13:46:54.215Z,25.09
2022-11-16T13:47:26.188Z,24.96
2022-11-16T13:48:26.694Z,25.23
2022-11-16T13:49:27.200Z,25.40
2022-11-16T13:50:27.729Z,25.45
2022-11-16T13:51:28.389Z,25.39
2022-11-16T13:52:46.999Z,25.50
2022-11-16T13:54:46.802Z,25.43
2022-11-16T13:55:31.466Z,25.18
2022-11-16T13:56:32.014Z,24.95
2022-11-16T13:57:32.525Z,24.77
2022-11-16T13:58:33.033Z,24.73